Time;durP1;ratioP1;P1;durP2;ratioP2;P2;SDS_P1;SDS_P2;PMS_P1;PMS_P2;Temp;Humidity;BMP_temperature;BMP_pressure;BME280_temperature;BME280_humidity;BME280_pressure;Samples;Min_cycle;Max_cycle;Signal;HPM_P1;HPM_P2
2023/04/10 00:01:00;;;;;;;10.10;6.63;;;;;;;9.26;65.27;102034.19;5081939;28;20028;-89
2023/04/10 00:03:26;;;;;;;14.02;7.70;;;;;;;9.28;65.31;102035.00;5084806;28;20028;-90
2023/04/10 00:05:53;;;;;;;12.52;8.00;;;;;;;9.16;64.46;102021.13;5097899;27;20028;-90
2023/04/10 00:08:22;;;;;;;13.63;7.82;;;;;;;9.31;64.53;102014.72;5078937;28;20475;-90
2023/04/10 00:10:47;;;;;;;13.90;7.78;;;;;;;9.31;64.15;102008.59;5076241;28;20456;-90
2023/04/10 00:13:14;;;;;;;11.85;8.50;;;;;;;9.37;64.63;101996.19;5088150;28;20036;-89
2023/04/10 00:15:39;;;;;;;11.35;7.15;;;;;;;9.48;63.05;101995.13;5082642;28;20031;-89
2023/04/10 00:18:05;;;;;;;12.73;7.15;;;;;;;9.49;62.98;101989.81;5083940;28;20028;-89
2023/04/10 00:20:30;;;;;;;13.75;7.45;;;;;;;9.58;62.51;101975.59;5086576;28;20028;-90
2023/04/10 00:22:55;;;;;;;11.70;8.48;;;;;;;9.57;62.78;101981.75;5091980;28;22285;-90
2023/04/10 00:25:21;;;;;;;12.88;7.28;;;;;;;9.62;61.90;101978.13;5075552;28;20055;-90
2023/04/10 00:27:47;;;;;;;10.68;7.70;;;;;;;9.58;63.44;101972.94;5104089;27;20027;-90
2023/04/10 00:30:12;;;;;;;12.98;7.45;;;;;;;9.62;62.32;101978.13;5093583;28;20035;-90
2023/04/10 00:32:38;;;;;;;11.82;8.07;;;;;;;9.59;62.66;101967.63;5083420;28;20513;-89
2023/04/10 00:35:03;;;;;;;10.50;7.53;;;;;;;9.56;62.27;101962.41;5086468;28;20031;-90
2023/04/10 00:37:28;;;;;;;10.32;6.53;;;;;;;9.56;62.25;101959.78;5097893;28;20024;-90
2023/04/10 00:39:54;;;;;;;14.25;8.00;;;;;;;9.51;63.45;101958.09;5092330;28;20498;-90
2023/04/10 00:42:19;;;;;;;12.27;7.72;;;;;;;9.51;64.38;101971.28;5080812;28;20426;-89
2023/04/10 00:44:44;;;;;;;10.23;7.78;;;;;;;9.38;62.98;101954.81;5078281;28;20035;-91
2023/04/10 00:47:12;;;;;;;11.95;7.85;;;;;;;9.38;63.38;101957.47;5086946;28;20019;-90
2023/04/10 00:49:37;;;;;;;13.48;7.88;;;;;;;9.35;63.22;101958.38;5080026;28;20032;-90
2023/04/10 00:52:02;;;;;;;10.50;7.10;;;;;;;9.35;63.93;101955.72;5080271;28;20030;-90
2023/04/10 00:54:29;;;;;;;11.88;8.20;;;;;;;9.34;63.55;101955.75;5100381;27;20086;-90
2023/04/10 00:56:56;;;;;;;11.98;8.38;;;;;;;9.26;63.84;101953.25;5084906;28;20020;-90
2023/04/10 00:59:21;;;;;;;10.77;7.95;;;;;;;9.22;64.08;101945.41;5085919;28;20047;-88
2023/04/10 01:01:47;;;;;;;11.45;7.93;;;;;;;9.22;64.72;101948.03;5082530;28;20028;-90
2023/04/10 01:04:13;;;;;;;10.60;7.82;;;;;;;9.21;64.97;101957.72;5081745;28;20099;-90
2023/04/10 01:07:40;;;;;;;10.77;7.22;;;;;;;9.23;64.58;101953.28;5085444;28;20368;-89
2023/04/10 01:10:24;;;;;;;12.95;7.68;;;;;;;9.07;65.10;101947.41;5060029;28;20036;-89
2023/04/10 01:13:15;;;;;;;11.43;7.75;;;;;;;9.03;64.73;101958.03;5046063;28;20083;-90
2023/04/10 01:15:48;;;;;;;12.15;7.10;;;;;;;8.91;65.45;101945.91;5079217;28;20039;-90
2023/04/10 01:18:42;;;;;;;15.60;7.93;;;;;;;8.95;64.78;101955.50;5083130;28;20024;-90
2023/04/10 01:21:10;;;;;;;11.55;7.65;;;;;;;8.86;65.42;101938.09;5090291;27;20036;-90
2023/04/10 01:23:44;;;;;;;11.65;7.85;;;;;;;8.82;65.81;101939.03;5085569;28;20028;-89
2023/04/10 01:26:11;;;;;;;10.55;7.45;;;;;;;8.94;63.72;101940.56;5076932;28;20031;-89
2023/04/10 01:28:48;;;;;;;10.40;7.15;;;;;;;9.02;64.59;101937.84;5077025;28;20047;-89
2023/04/10 01:31:20;;;;;;;10.88;6.82;;;;;;;9.00;63.83;101942.25;5070181;28;20039;-90
2023/04/10 01:34:00;;;;;;;12.50;8.20;;;;;;;9.07;64.53;101934.22;5078230;28;20577;-89
2023/04/10 01:36:29;;;;;;;12.30;7.82;;;;;;;9.00;65.77;101942.25;5069587;28;20025;-89
2023/04/10 01:38:56;;;;;;;10.75;7.57;;;;;;;8.95;65.57;101934.41;5076186;28;20023;-88
2023/04/10 01:41:23;;;;;;;13.40;8.80;;;;;;;8.93;65.16;101930.94;5073109;28;20101;-90
2023/04/10 01:43:51;;;;;;;10.38;7.35;;;;;;;9.14;64.90;101930.59;5083533;28;20023;-88
2023/04/10 01:46:21;;;;;;;13.30;8.57;;;;;;;9.15;64.72;101927.06;5070421;28;20036;-89
2023/04/10 01:48:46;;;;;;;11.13;7.75;;;;;;;9.15;64.15;101921.78;5081553;28;20148;-90
2023/04/10 01:51:12;;;;;;;12.75;7.72;;;;;;;9.15;64.45;101919.13;5072698;28;20578;-89
2023/04/10 01:53:39;;;;;;;14.57;8.15;;;;;;;9.24;63.26;101918.13;5070924;28;20575;-89
2023/04/10 01:56:07;;;;;;;12.90;7.93;;;;;;;9.26;62.89;101913.66;5070312;28;20779;-90
2023/04/10 01:58:33;;;;;;;9.75;6.72;;;;;;;9.24;62.41;101914.59;5080754;28;20525;-89
2023/04/10 02:00:58;;;;;;;11.57;7.07;;;;;;;9.27;62.69;101903.97;5069486;28;20034;-89
2023/04/10 02:03:24;;;;;;;10.27;7.72;;;;;;;9.30;62.64;101904.81;5076061;28;20024;-88
2023/04/10 02:06:07;;;;;;;10.95;7.15;;;;;;;9.32;62.62;101903.00;5069030;28;20024;-89
2023/04/10 02:08:41;;;;;;;11.40;7.38;;;;;;;9.14;62.99;101896.28;5070950;28;20052;-89
2023/04/10 02:11:25;;;;;;;11.23;7.32;;;;;;;9.01;63.62;101889.47;5075645;28;20051;-90
2023/04/10 02:13:52;;;;;;;12.25;7.30;;;;;;;8.97;63.61;101887.78;5077864;28;20208;-89
2023/04/10 02:16:20;;;;;;;10.68;7.85;;;;;;;8.99;63.39;101888.63;5075820;28;20115;-90
2023/04/10 02:18:47;;;;;;;12.60;8.00;;;;;;;8.92;64.14;101881.72;5080208;28;20028;-89
2023/04/10 02:21:13;;;;;;;11.18;7.88;;;;;;;8.92;63.52;101882.59;5077279;28;20031;-89
2023/04/10 02:23:38;;;;;;;12.35;7.60;;;;;;;8.90;63.48;101878.22;5087227;28;20142;-90
2023/04/10 02:26:06;;;;;;;10.60;7.13;;;;;;;8.87;63.58;101873.03;5083352;28;20073;-90
2023/04/10 02:28:31;;;;;;;11.35;7.35;;;;;;;8.91;63.61;101875.59;5082620;28;20537;-90
2023/04/10 02:30:56;;;;;;;11.80;7.80;;;;;;;8.85;63.05;101851.94;5089055;28;20019;-91
2023/04/10 02:33:22;;;;;;;10.93;7.03;;;;;;;8.90;62.86;101879.09;5099145;28;20035;-90
2023/04/10 02:35:47;;;;;;;13.30;8.27;;;;;;;8.85;63.07;101873.03;5085891;28;20154;-89
2023/04/10 02:38:12;;;;;;;14.00;8.05;;;;;;;8.82;63.40;101869.59;5085961;28;20024;-89
2023/04/10 02:40:38;;;;;;;12.05;8.73;;;;;;;8.81;63.52;101863.44;5084076;28;20055;-89
2023/04/10 02:43:03;;;;;;;12.23;8.13;;;;;;;8.75;63.47;101862.66;5070943;28;20032;-89
2023/04/10 02:45:28;;;;;;;13.48;7.85;;;;;;;8.73;64.10;101859.19;5089864;28;20137;-88
2023/04/10 02:47:53;;;;;;;9.70;7.28;;;;;;;8.79;63.41;101872.28;5084513;28;20116;-89
2023/04/10 02:50:19;;;;;;;12.52;8.10;;;;;;;8.75;63.67;101860.03;5090141;28;20429;-89
2023/04/10 02:52:44;;;;;;;11.88;7.90;;;;;;;8.72;63.24;101873.25;5085459;28;20028;-89
2023/04/10 02:55:10;;;;;;;13.10;8.00;;;;;;;8.68;63.62;101869.81;5101685;28;20365;-90
2023/04/10 02:57:35;;;;;;;12.82;7.65;;;;;;;8.65;63.91;101860.16;5094094;27;20058;-90
2023/04/10 03:00:03;;;;;;;13.50;7.95;;;;;;;8.63;64.10;101861.97;5084253;28;20069;-89
2023/04/10 03:02:28;;;;;;;13.85;7.18;;;;;;;8.60;64.13;101854.09;5081335;28;20115;-89
2023/04/10 03:04:54;;;;;;;12.48;7.72;;;;;;;8.59;63.71;101862.91;5082765;28;20115;-89
2023/04/10 03:07:19;;;;;;;12.90;7.97;;;;;;;8.54;64.00;101859.47;5070795;28;20021;-89
2023/04/10 03:09:44;;;;;;;11.15;7.88;;;;;;;8.49;64.21;101866.59;5077130;28;20024;-89
2023/04/10 03:12:10;;;;;;;11.05;7.47;;;;;;;8.67;62.97;101863.69;5084890;28;20047;-89
2023/04/10 03:14:35;;;;;;;13.93;8.23;;;;;;;8.56;63.77;101870.84;5085642;28;20755;-89
2023/04/10 03:17:00;;;;;;;12.30;8.30;;;;;;;8.51;64.55;101879.75;5085142;28;20336;-89
2023/04/10 03:19:26;;;;;;;11.55;7.85;;;;;;;8.47;63.99;101872.75;5085565;28;20038;-89
2023/04/10 03:21:52;;;;;;;14.25;8.52;;;;;;;8.41;64.31;101873.72;5100796;28;20052;-89
2023/04/10 03:24:17;;;;;;;11.68;7.45;;;;;;;8.43;63.98;101887.75;5082609;28;20090;-90
2023/04/10 03:26:43;;;;;;;12.77;7.35;;;;;;;8.40;64.69;101882.53;5086031;28;20031;-89
2023/04/10 03:29:08;;;;;;;13.30;7.55;;;;;;;8.38;64.66;101879.03;5073893;28;20456;-89
2023/04/10 03:31:33;;;;;;;12.93;8.13;;;;;;;8.34;64.71;101872.91;5087240;28;20025;-89
2023/04/10 03:33:59;;;;;;;11.63;7.72;;;;;;;8.32;64.63;101873.84;5079190;28;20050;-89
2023/04/10 03:36:24;;;;;;;14.35;8.48;;;;;;;8.32;64.80;101871.19;5077153;28;20028;-90
2023/04/10 03:38:51;;;;;;;12.48;7.88;;;;;;;8.26;65.25;101863.38;5087135;27;20018;-89
2023/04/10 03:41:16;;;;;;;12.05;7.72;;;;;;;8.14;64.68;101845.97;5077905;28;20020;-88
2023/04/10 03:43:42;;;;;;;14.65;9.25;;;;;;;8.19;66.10;101858.19;5073163;28;20483;-89
2023/04/10 03:46:07;;;;;;;12.75;7.90;;;;;;;8.15;65.39;101851.22;5082182;28;20028;-89
2023/04/10 03:48:32;;;;;;;13.23;8.35;;;;;;;8.11;65.10;101841.66;5077571;28;20055;-90
2023/04/10 03:50:58;;;;;;;12.85;8.25;;;;;;;8.10;65.35;101846.91;5074235;28;20039;-89
2023/04/10 03:53:23;;;;;;;12.35;8.00;;;;;;;8.03;65.63;101838.22;5076640;28;20027;-90
2023/04/10 03:55:51;;;;;;;13.77;8.73;;;;;;;8.06;65.13;101845.19;5074781;28;20124;-89
2023/04/10 03:58:16;;;;;;;12.75;8.77;;;;;;;8.04;64.85;101841.75;5076648;28;20391;-89
2023/04/10 04:00:42;;;;;;;13.02;8.38;;;;;;;8.04;65.56;101837.34;5086469;28;20024;-89
2023/04/10 04:03:07;;;;;;;13.05;8.13;;;;;;;8.06;65.42;101835.53;5101323;27;20115;-90
2023/04/10 04:05:32;;;;;;;12.25;8.25;;;;;;;8.06;64.81;101840.81;5085949;28;20039;-89
2023/04/10 04:07:57;;;;;;;14.45;8.88;;;;;;;8.18;65.19;101838.00;5080523;28;20089;-89
2023/04/10 04:10:23;;;;;;;11.80;8.30;;;;;;;8.19;64.64;101829.22;5088060;28;20031;-88
2023/04/10 04:12:48;;;;;;;13.65;8.63;;;;;;;8.24;64.43;101837.03;5087401;28;20442;-89
2023/04/10 04:15:14;;;;;;;12.95;8.30;;;;;;;8.22;64.15;101840.63;5081878;28;20449;-90
2023/04/10 04:17:40;;;;;;;11.43;7.88;;;;;;;8.16;64.20;101826.66;5083555;28;20534;-90
2023/04/10 04:20:06;;;;;;;14.90;8.95;;;;;;;8.14;64.67;101820.50;5089608;28;20035;-89
2023/04/10 04:22:31;;;;;;;12.75;8.93;;;;;;;8.10;64.28;101821.44;5081552;28;20093;-90
2023/04/10 04:24:56;;;;;;;14.18;8.85;;;;;;;8.06;64.49;101816.22;5086772;28;20383;-90
2023/04/10 04:27:22;;;;;;;13.30;7.95;;;;;;;8.04;64.67;101832.06;5084934;28;20028;-89
2023/04/10 04:29:47;;;;;;;14.27;8.73;;;;;;;7.97;64.90;101819.00;5077178;28;20028;-90
2023/04/10 04:32:12;;;;;;;14.88;8.82;;;;;;;7.95;65.06;101810.25;5076892;28;20024;-90
2023/04/10 04:34:38;;;;;;;12.02;8.45;;;;;;;7.91;65.09;101809.44;5086192;28;20024;-89
2023/04/10 04:37:04;;;;;;;14.70;8.57;;;;;;;7.90;65.41;101808.56;5101642;28;20039;-90
2023/04/10 04:39:29;;;;;;;13.32;8.73;;;;;;;7.90;65.26;101815.59;5097190;28;20020;-90
2023/04/10 04:41:55;;;;;;;12.60;8.05;;;;;;;7.92;65.29;101821.69;5083908;28;20498;-90
2023/04/10 04:44:21;;;;;;;12.85;8.18;;;;;;;7.90;65.12;101815.59;5080183;28;20108;-88
2023/04/10 04:46:46;;;;;;;15.25;8.40;;;;;;;7.89;66.00;101813.84;5087475;28;20114;-90
2023/04/10 04:49:11;;;;;;;15.63;8.90;;;;;;;7.87;65.29;101807.72;5073758;28;20548;-89
2023/04/10 04:51:37;;;;;;;12.25;7.57;;;;;;;7.93;65.17;101815.56;5077513;28;20028;-89
2023/04/10 04:54:02;;;;;;;11.93;7.57;;;;;;;7.92;65.31;101808.53;5088327;28;20028;-89
2023/04/10 04:56:28;;;;;;;12.30;7.88;;;;;;;7.94;65.13;101806.75;5078521;28;20039;-89
2023/04/10 04:58:53;;;;;;;13.35;8.38;;;;;;;7.95;65.19;101802.34;5093671;27;20427;-90
2023/04/10 05:01:18;;;;;;;15.57;8.48;;;;;;;7.90;65.31;101802.44;5081261;28;20294;-90
2023/04/10 05:03:44;;;;;;;11.93;8.23;;;;;;;7.76;65.87;101801.75;5084591;28;20477;-88
2023/04/10 05:06:09;;;;;;;12.50;8.20;;;;;;;7.72;65.59;101793.00;5080096;28;21371;-89
2023/04/10 05:08:34;;;;;;;13.35;8.18;;;;;;;7.73;65.57;101799.13;5072377;28;20027;-90
2023/04/10 05:11:00;;;;;;;11.40;7.80;;;;;;;7.72;66.31;101794.78;5098081;28;20467;-89
2023/04/10 05:13:25;;;;;;;12.27;7.88;;;;;;;7.71;65.81;101790.41;5079891;28;20040;-90
2023/04/10 05:15:51;;;;;;;11.80;7.53;;;;;;;7.74;65.64;101793.88;5072002;28;20047;-89
2023/04/10 05:18:18;;;;;;;14.73;7.90;;;;;;;7.78;65.38;101787.66;5080619;28;20114;-89
2023/04/10 05:20:46;;;;;;;12.38;7.80;;;;;;;7.79;65.42;101775.38;5101845;27;20024;-89
2023/04/10 05:23:11;;;;;;;10.90;7.57;;;;;;;7.80;65.03;101769.22;5085054;28;20380;-90
2023/04/10 05:25:36;;;;;;;12.45;7.63;;;;;;;7.91;64.69;101777.81;5098599;28;20023;-89
2023/04/10 05:28:02;;;;;;;12.18;7.57;;;;;;;7.86;65.72;101774.41;5091071;28;20024;-89
2023/04/10 05:30:27;;;;;;;11.68;7.97;;;;;;;7.88;66.14;101769.97;5077040;28;20056;-89
2023/04/10 05:32:52;;;;;;;10.15;7.43;;;;;;;7.97;65.71;101769.84;5077828;28;20440;-89
2023/04/10 05:35:18;;;;;;;11.95;7.93;;;;;;;8.01;64.81;101773.28;5075334;28;20538;-90
2023/04/10 05:37:43;;;;;;;14.68;8.73;;;;;;;8.06;64.89;101779.38;5071871;28;20028;-89
2023/04/10 05:40:08;;;;;;;12.27;7.57;;;;;;;8.12;64.12;101774.03;5076932;28;20024;-90
2023/04/10 05:42:34;;;;;;;13.00;8.07;;;;;;;8.17;65.05;101777.47;5077123;28;20036;-89
2023/04/10 05:44:59;;;;;;;14.10;7.38;;;;;;;8.23;64.52;101776.50;5075131;28;20499;-89
2023/04/10 05:47:24;;;;;;;11.95;7.55;;;;;;;8.32;64.23;101778.97;5069321;28;20031;-90
2023/04/10 05:49:50;;;;;;;11.77;7.63;;;;;;;8.41;63.65;101778.88;5075800;28;20077;-89
2023/04/10 05:52:15;;;;;;;13.15;7.20;;;;;;;8.57;63.59;101774.19;5078731;28;20044;-89
2023/04/10 05:54:40;;;;;;;13.68;8.27;;;;;;;8.53;63.19;101783.06;5078092;28;20035;-89
2023/04/10 05:57:05;;;;;;;13.40;7.72;;;;;;;8.55;63.45;101771.59;5071700;28;20446;-90
2023/04/10 05:59:31;;;;;;;11.45;7.65;;;;;;;8.71;63.32;101771.34;5095518;27;20024;-89
2023/04/10 06:01:56;;;;;;;12.32;7.40;;;;;;;8.84;62.84;101775.50;5081081;28;20046;-89
2023/04/10 06:04:22;;;;;;;11.02;7.20;;;;;;;8.93;61.92;101784.09;5084813;28;20062;-89
2023/04/10 06:06:47;;;;;;;11.93;7.15;;;;;;;9.04;61.94;101789.19;5084607;28;20027;-89
2023/04/10 06:09:13;;;;;;;8.98;6.22;;;;;;;9.12;60.96;101784.63;5082762;28;20670;-89
2023/04/10 06:11:38;;;;;;;10.93;7.47;;;;;;;9.05;62.72;101788.31;5089797;28;20044;-88
2023/04/10 06:14:03;;;;;;;11.15;7.40;;;;;;;9.06;61.75;101775.97;5081922;28;20025;-90
2023/04/10 06:16:29;;;;;;;10.23;7.00;;;;;;;9.13;60.80;101780.22;5080382;28;20028;-89
2023/04/10 06:18:54;;;;;;;10.63;6.95;;;;;;;9.25;61.88;101782.63;5077450;28;20028;-89
2023/04/10 06:21:19;;;;;;;9.30;6.90;;;;;;;9.32;61.22;101783.38;5088163;28;20028;-90
2023/04/10 06:23:45;;;;;;;9.63;6.53;;;;;;;9.40;60.49;101777.03;5091111;28;20012;-89
2023/04/10 06:26:11;;;;;;;12.15;7.45;;;;;;;9.41;60.34;101770.00;5078508;28;20540;-90
2023/04/10 06:28:36;;;;;;;8.80;6.38;;;;;;;9.49;61.06;101767.22;5092818;28;20024;-90
2023/04/10 06:31:03;;;;;;;11.35;7.20;;;;;;;9.53;62.23;101759.19;5101690;27;20100;-90
2023/04/10 06:33:28;;;;;;;8.65;6.68;;;;;;;9.64;60.20;101758.97;5090586;28;20388;-90
2023/04/10 06:35:53;;;;;;;10.90;7.75;;;;;;;9.66;60.65;101757.16;5096958;28;20034;-90
2023/04/10 06:38:19;;;;;;;11.77;7.55;;;;;;;9.69;60.60;101747.38;5093955;28;20056;-90
2023/04/10 06:40:44;;;;;;;11.77;7.55;;;;;;;9.82;60.98;101748.00;5092258;28;20024;-89
2023/04/10 06:43:09;;;;;;;11.95;6.93;;;;;;;9.80;59.45;101741.03;5083762;28;20412;-90
2023/04/10 06:45:35;;;;;;;9.75;6.88;;;;;;;10.13;60.17;101748.16;5090709;28;20566;-89
2023/04/10 06:48:00;;;;;;;10.55;7.75;;;;;;;9.99;60.17;101736.19;5089030;28;20532;-89
2023/04/10 06:50:25;;;;;;;12.75;7.20;;;;;;;10.06;60.29;101728.06;5093919;28;20055;-90
2023/04/10 06:52:52;;;;;;;10.30;7.22;;;;;;;10.10;58.67;101720.94;5083729;28;20064;-90
2023/04/10 06:55:17;;;;;;;10.75;6.28;;;;;;;10.25;59.72;101717.09;5085178;28;20024;-90
2023/04/10 06:57:42;;;;;;;11.40;6.90;;;;;;;10.25;57.83;101714.44;5096123;28;20027;-89
2023/04/10 07:00:08;;;;;;;10.80;7.07;;;;;;;10.30;58.27;101708.13;5093407;28;20024;-89
2023/04/10 07:02:34;;;;;;;11.68;7.35;;;;;;;10.44;58.29;101703.38;5087010;28;20055;-89
2023/04/10 07:04:59;;;;;;;14.80;7.70;;;;;;;10.53;57.01;101704.03;5081514;28;20027;-87
2023/04/10 07:07:25;;;;;;;10.63;7.85;;;;;;;10.50;57.19;101702.34;5092525;28;20111;-90
2023/04/10 07:09:50;;;;;;;9.90;7.28;;;;;;;10.57;56.99;101701.25;5085800;28;20024;-89
2023/04/10 07:12:16;;;;;;;9.90;7.50;;;;;;;10.57;57.55;101681.88;5098555;28;20083;-89
2023/04/10 07:14:41;;;;;;;12.65;7.40;;;;;;;10.72;56.93;101697.34;5089439;28;20063;-88
2023/04/10 07:17:07;;;;;;;11.27;7.38;;;;;;;10.82;56.96;101690.03;5095041;28;20410;-89
2023/04/10 07:19:34;;;;;;;10.32;7.75;;;;;;;10.83;57.11;101683.84;5081320;28;20059;-89
2023/04/10 07:22:00;;;;;;;10.75;7.78;;;;;;;10.86;57.28;101686.38;5093502;28;20130;-89
2023/04/10 07:24:26;;;;;;;10.13;7.28;;;;;;;10.96;57.10;101679.94;5112517;27;20429;-90
2023/04/10 07:26:51;;;;;;;9.90;7.18;;;;;;;11.06;56.85;101670.84;5089532;28;20479;-90
2023/04/10 07:29:17;;;;;;;12.18;7.05;;;;;;;11.21;56.26;101666.88;5083170;28;20024;-90
2023/04/10 07:31:42;;;;;;;9.30;7.13;;;;;;;11.19;55.41;101671.31;5085450;28;20115;-90
2023/04/10 07:34:10;;;;;;;12.52;7.68;;;;;;;11.15;54.62;101659.13;5088557;28;20020;-90
2023/04/10 07:36:35;;;;;;;9.02;6.90;;;;;;;11.28;56.90;101662.25;5086668;28;20604;-90
2023/04/10 07:39:01;;;;;;;10.98;8.10;;;;;;;11.34;55.43;101655.00;5084752;28;20020;-90
2023/04/10 07:41:26;;;;;;;10.57;7.68;;;;;;;11.41;56.16;101645.94;5092883;28;20031;-91
2023/04/10 07:43:52;;;;;;;12.23;7.90;;;;;;;11.49;54.71;101646.56;5089085;28;20024;-90
2023/04/10 07:46:17;;;;;;;12.00;8.20;;;;;;;11.49;55.70;101643.06;5080225;28;20403;-90
2023/04/10 07:48:43;;;;;;;10.30;7.30;;;;;;;11.68;54.47;101638.06;5089815;28;20016;-88
2023/04/10 07:51:09;;;;;;;9.80;6.82;;;;;;;11.98;53.30;101645.06;5105918;27;20063;-89
2023/04/10 07:53:35;;;;;;;10.15;7.63;;;;;;;12.10;54.70;101634.94;5080338;28;21307;-90
2023/04/10 07:56:01;;;;;;;10.73;7.20;;;;;;;12.32;52.09;101629.78;5077667;28;20032;-90
2023/04/10 07:58:27;;;;;;;9.95;7.10;;;;;;;12.49;52.43;101630.03;5088386;28;20039;-90
2023/04/10 08:00:52;;;;;;;10.88;7.05;;;;;;;12.62;50.82;101622.53;5086889;28;20478;-91
2023/04/10 08:03:17;;;;;;;9.18;7.03;;;;;;;12.80;52.26;101621.00;5092935;28;20055;-91
2023/04/10 08:05:43;;;;;;;11.35;7.10;;;;;;;12.97;51.87;101613.28;5092205;28;20036;-89
2023/04/10 08:08:08;;;;;;;9.57;5.70;;;;;;;13.35;50.82;101600.34;5092342;28;20174;-90
2023/04/10 08:10:38;;;;;;;10.30;6.45;;;;;;;13.55;51.34;101604.84;5094576;28;20170;-91
2023/04/10 08:13:04;;;;;;;9.43;7.18;;;;;;;13.75;49.49;101594.25;5095110;28;20612;-90
2023/04/10 08:15:29;;;;;;;9.38;6.38;;;;;;;13.52;49.43;101603.16;5083744;28;20040;-91
2023/04/10 08:17:56;;;;;;;7.97;6.07;;;;;;;13.87;48.98;101595.56;5083200;28;20024;-90
2023/04/10 08:20:22;;;;;;;8.77;6.60;;;;;;;13.73;48.95;101599.66;5092979;28;20062;-90
2023/04/10 08:22:47;;;;;;;9.13;7.25;;;;;;;13.67;50.29;101599.91;5104098;27;20029;-91
2023/04/10 08:25:12;;;;;;;9.32;6.22;;;;;;;13.84;48.29;101593.00;5090017;28;20104;-90
2023/04/10 08:27:38;;;;;;;11.60;8.10;;;;;;;13.85;49.00;101597.41;5087273;28;20016;-91
2023/04/10 08:30:04;;;;;;;11.07;6.40;;;;;;;13.89;49.00;101599.00;5087569;28;20024;-91
2023/04/10 08:32:29;;;;;;;8.75;6.38;;;;;;;14.00;48.71;101594.13;5095607;28;20059;-90
2023/04/10 08:34:55;;;;;;;7.70;5.80;;;;;;;14.07;47.67;101598.22;5091330;28;20024;-90
2023/04/10 08:37:20;;;;;;;8.98;7.22;;;;;;;13.94;49.38;101589.94;5082545;28;20142;-90
2023/04/10 08:39:45;;;;;;;10.75;7.28;;;;;;;14.13;47.29;101597.09;5099772;28;20082;-90
2023/04/10 08:42:11;;;;;;;9.10;7.05;;;;;;;14.33;47.81;101580.28;5088753;28;20530;-92
2023/04/10 08:44:37;;;;;;;11.85;6.70;;;;;;;14.22;50.45;101572.75;5085741;28;20035;-91
2023/04/10 08:47:04;;;;;;;9.18;6.85;;;;;;;14.29;50.26;101580.41;5084050;28;20500;-91
2023/04/10 08:49:47;;;;;;;7.50;5.97;;;;;;;14.54;48.61;101569.56;5093688;28;20422;-90
2023/04/10 08:52:19;;;;;;;;;;;;;;;14.75;47.84;101570.41;5095550;28;20060;-90
2023/04/10 08:54:46;;;;;;;;;;;;;;;14.75;47.84;101574.88;5085779;28;19911;-90
2023/04/10 08:57:17;;;;;;;6.95;5.50;;;;;;;14.73;48.18;101568.75;5087668;28;20282;-90
2023/04/10 08:59:42;;;;;;;6.95;5.38;;;;;;;14.67;48.39;101571.69;5076044;28;20025;-91
2023/04/10 09:02:08;;;;;;;8.75;6.28;;;;;;;14.63;48.95;101570.09;5086930;28;20028;-91
2023/04/10 09:04:33;;;;;;;9.32;6.50;;;;;;;14.68;47.21;101557.44;5108019;28;20040;-90
2023/04/10 09:06:59;;;;;;;8.35;7.18;;;;;;;14.48;48.07;101577.84;5087286;28;20032;-90
2023/04/10 09:09:24;;;;;;;8.85;6.80;;;;;;;14.51;47.78;101566.22;5086903;28;20028;-91
2023/04/10 09:11:54;;;;;;;9.63;7.38;;;;;;;14.48;47.21;101571.66;5106081;28;20052;-90
2023/04/10 09:14:24;;;;;;;7.22;5.22;;;;;;;14.56;47.58;101556.22;5112069;28;20044;-89
2023/04/10 09:16:51;;;;;;;8.93;6.65;;;;;;;14.53;49.55;101567.84;5105452;28;20032;-89
2023/04/10 09:19:29;;;;;;;7.53;5.72;;;;;;;14.87;48.27;101549.47;5102089;28;20033;-89
2023/04/10 09:21:55;;;;;;;7.75;6.82;;;;;;;14.89;48.40;101547.63;5105739;28;20027;-89
2023/04/10 09:24:22;;;;;;;9.13;7.03;;;;;;;14.95;48.92;101550.84;5107503;28;20019;-89
2023/04/10 09:26:47;;;;;;;12.27;6.55;;;;;;;14.88;47.05;101549.41;5093574;28;20039;-92
2023/04/10 09:29:13;;;;;;;7.90;6.65;;;;;;;14.94;47.66;101542.94;5084387;28;20715;-91
2023/04/10 09:31:38;;;;;;;9.20;6.22;;;;;;;15.09;47.24;101542.19;5091164;28;20028;-91
2023/04/10 09:34:20;;;;;;;7.47;6.10;;;;;;;14.78;48.83;101537.44;5089841;28;20042;-91
2023/04/10 09:36:54;;;;;;;7.85;6.00;;;;;;;14.77;48.41;101536.59;5103287;28;20034;-91
2023/04/10 09:39:20;;;;;;;8.35;6.97;;;;;;;14.87;49.52;101531.69;5084978;28;20098;-91
2023/04/10 09:41:54;;;;;;;8.38;6.25;;;;;;;15.03;48.88;101518.53;5085814;28;20540;-91
2023/04/10 09:44:31;;;;;;;9.77;6.50;;;;;;;15.10;48.41;101519.09;5079355;28;20047;-90
2023/04/10 09:46:58;;;;;;;9.20;6.38;;;;;;;14.98;47.90;101492.13;5083760;28;20028;-90
2023/04/10 09:49:23;;;;;;;7.68;6.47;;;;;;;15.10;47.78;101508.44;5098419;28;20032;-89
2023/04/10 09:51:49;;;;;;;10.18;7.13;;;;;;;15.00;47.83;101486.72;5093599;28;20490;-91
2023/04/10 09:54:15;;;;;;;8.38;6.47;;;;;;;15.17;47.72;101484.09;5091620;27;20111;-91
2023/04/10 09:56:43;;;;;;;7.22;6.15;;;;;;;15.18;47.53;101490.28;5086222;28;20751;-89
2023/04/10 09:59:10;;;;;;;5.90;4.68;;;;;;;15.22;46.96;101484.75;5071459;28;20062;-91
2023/04/10 10:01:36;;;;;;;11.02;6.25;;;;;;;15.10;47.49;101489.78;5082760;28;20562;-91
2023/04/10 10:04:04;;;;;;;7.50;6.05;;;;;;;15.08;49.89;101478.38;5074805;28;20352;-91
2023/04/10 10:06:32;;;;;;;6.65;5.32;;;;;;;15.25;47.14;101487.25;5081160;28;20611;-91
2023/04/10 10:09:03;;;;;;;7.43;5.53;;;;;;;15.31;47.98;101467.44;5073084;28;20020;-90
2023/04/10 10:11:32;;;;;;;7.97;6.63;;;;;;;15.45;48.52;101482.75;5078542;28;20189;-90
2023/04/10 10:14:01;;;;;;;8.82;6.32;;;;;;;15.57;47.67;101480.31;5096120;28;20084;-90
2023/04/10 10:16:38;;;;;;;8.60;6.45;;;;;;;15.86;47.04;101480.66;5075524;28;20028;-91
2023/04/10 10:19:29;;;;;;;7.55;6.00;;;;;;;16.14;48.55;101474.72;5077475;28;20089;-90
2023/04/10 10:21:55;;;;;;;8.63;6.00;;;;;;;16.27;46.54;101449.13;5074752;28;20052;-91
2023/04/10 10:24:22;;;;;;;9.15;6.75;;;;;;;16.30;46.93;101432.94;5079631;28;20536;-90
2023/04/10 10:26:50;;;;;;;6.57;5.43;;;;;;;16.51;46.73;101446.91;5086335;28;20389;-90
2023/04/10 10:29:17;;;;;;;8.00;6.03;;;;;;;16.66;47.78;101434.50;5082107;28;20020;-91
2023/04/10 10:31:44;;;;;;;7.65;5.50;;;;;;;16.82;46.48;101448.75;5093529;28;20028;-90
2023/04/10 10:34:10;;;;;;;7.63;6.35;;;;;;;17.25;44.99;101427.59;5082716;28;20032;-90
2023/04/10 10:36:36;;;;;;;5.82;5.25;;;;;;;17.80;45.08;101429.66;5077868;28;20647;-92
2023/04/10 10:39:14;;;;;;;5.28;4.30;;;;;;;17.94;42.62;101431.47;5081117;28;20595;-92
2023/04/10 10:41:48;;;;;;;6.85;5.28;;;;;;;17.84;41.93;101409.78;5079660;28;20028;-92
2023/04/10 10:44:22;;;;;;;6.63;5.18;;;;;;;17.34;42.86;101413.66;5076415;28;20032;-91
2023/04/10 10:46:49;;;;;;;5.07;4.57;;;;;;;17.57;42.35;101406.94;5089382;28;20028;-91
2023/04/10 10:49:15;;;;;;;4.80;4.22;;;;;;;17.62;42.22;101401.31;5075312;28;20026;-92
2023/04/10 10:51:50;;;;;;;7.10;4.07;;;;;;;17.57;43.30;101406.09;5079990;28;20024;-91
2023/04/10 10:54:34;;;;;;;5.15;4.57;;;;;;;17.74;43.70;101400.59;5082661;28;20031;-92
2023/04/10 10:57:01;;;;;;;5.20;4.57;;;;;;;18.02;42.76;101402.44;5079030;28;20125;-91
2023/04/10 10:59:42;;;;;;;3.67;3.30;;;;;;;17.97;42.28;101392.97;5084452;28;20024;-93
2023/04/10 11:02:25;;;;;;;5.18;4.70;;;;;;;17.40;41.40;101385.72;5075656;28;20032;-92
2023/04/10 11:04:51;;;;;;;6.32;4.70;;;;;;;17.63;43.08;101378.13;5077053;28;20020;-91
2023/04/10 11:07:16;;;;;;;5.43;4.63;;;;;;;17.85;40.83;101366.03;5083049;28;20085;-91
2023/04/10 11:09:43;;;;;;;6.68;4.07;;;;;;;17.82;40.63;101366.22;5075599;28;20564;-92
2023/04/10 11:12:08;;;;;;;5.03;4.20;;;;;;;17.78;40.82;101361.16;5088492;28;20526;-92
2023/04/10 11:14:33;;;;;;;5.75;4.50;;;;;;;18.18;41.02;101372.03;5086533;28;20290;-91
2023/04/10 11:16:59;;;;;;;5.45;4.00;;;;;;;18.57;40.52;101372.16;5083321;28;20118;-92
2023/04/10 11:19:24;;;;;;;5.30;3.97;;;;;;;19.06;40.35;101371.59;5080183;28;20113;-92
2023/04/10 11:22:04;;;;;;;5.10;4.38;;;;;;;19.09;40.68;101366.03;5080228;28;20031;-91
2023/04/10 11:24:53;;;;;;;5.03;4.55;;;;;;;19.21;39.80;101356.31;5082572;28;20098;-91